createdAt,value
2019-06-20T00:00:42.748Z,14.10
2019-06-20T00:03:12.987Z,13.88
2019-06-20T00:05:43.301Z,13.18
2019-06-20T00:08:13.782Z,14.07
2019-06-20T00:10:45.909Z,13.43
2019-06-20T00:13:16.536Z,12.95
2019-06-20T00:15:46.658Z,13.68
2019-06-20T00:18:16.988Z,12.45
2019-06-20T00:20:47.352Z,14.50
2019-06-20T00:23:17.643Z,13.58
2019-06-20T00:25:47.766Z,13.88
2019-06-20T00:28:19.527Z,14.20
2019-06-20T00:30:49.650Z,14.87
2019-06-20T00:33:23.047Z,15.65
2019-06-20T00:35:53.683Z,15.72
2019-06-20T00:38:23.805Z,15.18
2019-06-20T00:40:58.841Z,15.78
2019-06-20T00:43:29.070Z,15.98
2019-06-20T00:45:59.190Z,16.85
2019-06-20T00:48:29.414Z,15.28
2019-06-20T00:50:59.742Z,15.78
2019-06-20T00:53:29.968Z,15.48
2019-06-20T00:56:00.197Z,15.80
2019-06-20T00:58:30.521Z,15.13
2019-06-20T01:01:00.746Z,14.25
2019-06-20T01:03:32.507Z,13.98
2019-06-20T01:06:27.254Z,14.13
2019-06-20T01:08:59.161Z,13.55
2019-06-20T01:11:31.124Z,13.32
2019-06-20T01:14:03.275Z,13.40
2019-06-20T01:16:33.536Z,14.23
2019-06-20T01:19:03.827Z,15.20
2019-06-20T01:21:34.047Z,15.08
2019-06-20T01:24:05.472Z,14.07
2019-06-20T01:26:36.169Z,14.07
2019-06-20T01:29:06.582Z,15.50
2019-06-20T01:31:36.791Z,17.67
2019-06-20T01:34:07.092Z,17.48
2019-06-20T01:36:37.375Z,17.55
2019-06-20T01:39:08.666Z,18.17
2019-06-20T01:41:40.515Z,18.27
2019-06-20T01:44:10.931Z,17.45
2019-06-20T01:46:41.256Z,18.30
2019-06-20T01:49:14.338Z,19.32
2019-06-20T01:51:45.852Z,18.40
2019-06-20T01:54:18.838Z,18.98
2019-06-20T01:56:49.119Z,19.37
2019-06-20T01:59:41.936Z,20.97
2019-06-20T02:02:12.234Z,20.12
2019-06-20T02:04:42.621Z,20.48
2019-06-20T02:07:14.902Z,20.27
2019-06-20T02:09:45.430Z,21.27
2019-06-20T02:12:15.805Z,19.70
2019-06-20T02:14:46.169Z,20.02
2019-06-20T02:17:16.398Z,22.07
2019-06-20T02:19:46.749Z,20.17
2019-06-20T02:22:17.047Z,21.02
2019-06-20T02:24:47.392Z,21.33
2019-06-20T02:27:17.741Z,22.27
2019-06-20T02:29:48.041Z,21.57
2019-06-20T02:32:21.430Z,21.90
2019-06-20T02:34:51.832Z,22.98
2019-06-20T02:37:22.154Z,23.12
2019-06-20T02:39:52.494Z,22.82
2019-06-20T02:42:27.067Z,22.35
2019-06-20T02:44:57.458Z,22.22
2019-06-20T02:47:28.248Z,20.80
2019-06-20T02:50:00.150Z,20.17
2019-06-20T02:52:30.532Z,21.15
2019-06-20T02:55:00.949Z,21.10
2019-06-20T02:57:31.360Z,21.07
2019-06-20T03:00:01.888Z,22.05
2019-06-20T03:02:34.465Z,22.33
2019-06-20T03:05:09.455Z,22.75
2019-06-20T03:07:39.876Z,22.70
2019-06-20T03:10:11.519Z,21.52
2019-06-20T03:12:42.154Z,23.07
2019-06-20T03:15:14.555Z,23.20
2019-06-20T03:17:44.825Z,22.15
2019-06-20T03:20:15.157Z,22.60
2019-06-20T03:22:47.130Z,19.80
2019-06-20T03:25:21.050Z,21.60
2019-06-20T03:27:52.890Z,21.60
2019-06-20T03:30:24.995Z,21.60
2019-06-20T03:32:56.813Z,21.82
2019-06-20T03:35:27.322Z,20.08
2019-06-20T03:37:59.367Z,19.15
2019-06-20T03:40:29.999Z,20.25
2019-06-20T03:43:00.528Z,18.80
2019-06-20T03:45:31.164Z,18.32
2019-06-20T03:48:01.590Z,19.02
2019-06-20T03:50:34.368Z,19.05
2019-06-20T03:53:05.003Z,18.27
2019-06-20T03:55:37.069Z,18.48
2019-06-20T03:58:07.699Z,17.23
2019-06-20T04:00:41.605Z,17.98
2019-06-20T04:03:12.033Z,17.30
2019-06-20T04:05:47.701Z,17.17
2019-06-20T04:08:17.979Z,17.50
2019-06-20T04:10:48.092Z,17.52
2019-06-20T04:13:18.283Z,18.27
2019-06-20T04:15:52.858Z,19.42
2019-06-20T04:18:22.963Z,19.37
2019-06-20T04:20:53.000Z,21.15
2019-06-20T04:23:24.878Z,18.17
2019-06-20T04:25:58.059Z,19.17
2019-06-20T04:28:29.470Z,19.82
2019-06-20T04:30:59.652Z,21.12
2019-06-20T04:33:32.781Z,21.97
2019-06-20T04:36:05.789Z,20.08
2019-06-20T04:38:35.933Z,19.07
2019-06-20T04:41:08.819Z,19.67
2019-06-20T04:43:39.048Z,21.17
2019-06-20T04:46:20.120Z,21.62
2019-06-20T04:48:51.060Z,19.57
2019-06-20T04:51:21.285Z,22.20
2019-06-20T04:53:51.510Z,22.95
2019-06-20T04:56:22.661Z,22.13
2019-06-20T04:58:55.954Z,23.20
2019-06-20T05:04:01.418Z,24.40
2019-06-20T05:06:41.179Z,26.50
2019-06-20T05:09:11.181Z,25.23
2019-06-20T05:11:41.834Z,26.33
2019-06-20T05:14:31.486Z,27.20
2019-06-20T05:17:07.002Z,24.37
2019-06-20T05:19:34.293Z,51.55
2019-06-20T05:22:05.311Z,24.23
2019-06-20T05:24:37.195Z,20.57
2019-06-20T05:27:15.755Z,24.52
2019-06-20T05:29:46.037Z,30.05
2019-06-20T05:32:18.112Z,30.65
2019-06-20T05:34:52.004Z,28.12
2019-06-20T05:37:22.240Z,26.20
2019-06-20T05:39:52.364Z,32.08
2019-06-20T05:42:22.593Z,29.40
2019-06-20T05:44:54.352Z,30.62
2019-06-20T05:47:24.474Z,29.00
2019-06-20T05:49:55.015Z,29.42
2019-06-20T05:52:25.435Z,29.10
2019-06-20T05:54:57.742Z,30.75
2019-06-20T05:57:29.264Z,29.30
2019-06-20T06:00:08.373Z,32.95
2019-06-20T06:05:08.141Z,31.77
2019-06-20T06:07:38.250Z,31.87
2019-06-20T06:10:10.216Z,33.63
2019-06-20T06:12:40.442Z,32.55
2019-06-20T06:15:14.350Z,33.92
2019-06-20T06:17:46.215Z,34.70
2019-06-20T06:20:18.178Z,34.40
2019-06-20T06:22:48.393Z,31.90
2019-06-20T06:25:20.985Z,30.85
2019-06-20T06:27:51.107Z,31.25
2019-06-20T06:30:22.769Z,29.90
2019-06-20T06:32:56.195Z,29.35
2019-06-20T06:35:26.388Z,29.45
2019-06-20T06:37:57.229Z,28.85
2019-06-20T06:40:28.378Z,27.10
2019-06-20T06:42:58.807Z,28.20
2019-06-20T06:45:29.133Z,27.10
2019-06-20T06:47:59.359Z,27.67
2019-06-20T06:50:29.791Z,29.12
2019-06-20T06:53:00.026Z,30.52
2019-06-20T06:55:30.135Z,31.60
2019-06-20T06:58:00.373Z,31.65
2019-06-20T07:00:32.415Z,30.45
2019-06-20T07:03:22.129Z,28.83
2019-06-20T07:05:52.450Z,27.67
2019-06-20T07:08:22.854Z,22.05
2019-06-20T07:10:54.675Z,16.70
2019-06-20T07:13:24.976Z,17.10
2019-06-20T07:15:55.280Z,15.95
2019-06-20T07:18:25.586Z,14.35
2019-06-20T07:20:55.898Z,13.58
2019-06-20T07:23:26.306Z,13.38
2019-06-20T07:25:56.528Z,13.83
2019-06-20T07:28:27.236Z,14.70
2019-06-20T07:30:57.554Z,13.58
2019-06-20T07:33:27.952Z,14.15
2019-06-20T07:35:58.245Z,12.98
2019-06-20T07:38:28.534Z,13.58
2019-06-20T07:40:58.856Z,14.18
2019-06-20T07:43:29.619Z,13.98
2019-06-20T07:46:03.026Z,14.33
2019-06-20T07:48:31.976Z,15.68
2019-06-20T07:51:04.528Z,16.67
2019-06-20T07:53:34.838Z,16.82
2019-06-20T07:56:05.085Z,18.80
2019-06-20T07:58:35.400Z,18.35
2019-06-20T08:01:05.838Z,18.95
2019-06-20T08:03:36.208Z,19.00
2019-06-20T08:06:10.738Z,17.52
2019-06-20T08:08:41.033Z,18.55
2019-06-20T08:11:11.458Z,16.95
2019-06-20T08:13:41.796Z,19.65
2019-06-20T08:16:12.215Z,18.37
2019-06-20T08:18:42.555Z,16.12
2019-06-20T08:21:12.800Z,17.42
2019-06-20T08:23:43.137Z,17.30
2019-06-20T08:26:13.508Z,15.65
2019-06-20T08:28:45.310Z,14.00
2019-06-20T08:31:15.549Z,14.50
2019-06-20T08:33:45.795Z,15.13
2019-06-20T08:36:16.093Z,15.48
2019-06-20T08:38:47.895Z,18.02
2019-06-20T08:41:18.195Z,19.70
2019-06-20T08:43:49.025Z,17.80
2019-06-20T08:46:22.126Z,16.73
2019-06-20T08:51:23.089Z,16.82
2019-06-20T08:53:55.730Z,16.05
2019-06-20T08:56:25.542Z,16.73
2019-06-20T08:59:00.579Z,18.75
2019-06-20T09:01:32.052Z,15.48
2019-06-20T09:04:05.634Z,12.78
2019-06-20T09:06:36.123Z,10.88
2019-06-20T09:09:08.087Z,12.58
2019-06-20T09:11:40.055Z,11.97
2019-06-20T09:14:10.456Z,10.28
2019-06-20T09:16:42.700Z,12.18
2019-06-20T09:19:13.836Z,11.77
2019-06-20T09:21:44.822Z,11.78
2019-06-20T09:24:15.662Z,9.10
2019-06-20T09:26:47.735Z,9.30
2019-06-20T09:29:18.047Z,9.18
2019-06-20T09:31:48.953Z,9.80
2019-06-20T09:34:19.750Z,9.75
2019-06-20T09:36:51.988Z,8.75
2019-06-20T09:39:24.399Z,7.75
2019-06-20T09:41:56.577Z,7.92
2019-06-20T09:44:26.999Z,7.67
2019-06-20T09:46:58.222Z,7.17
2019-06-20T09:49:30.156Z,7.42
2019-06-20T09:52:00.539Z,8.68
2019-06-20T09:54:30.887Z,7.67
2019-06-20T09:57:04.329Z,6.53
2019-06-20T09:59:34.579Z,5.40
2019-06-20T10:02:05.246Z,5.42
2019-06-20T10:04:35.551Z,5.45
2019-06-20T10:07:05.850Z,5.97
2019-06-20T10:09:36.679Z,4.90
2019-06-20T10:12:07.075Z,5.70
2019-06-20T10:14:37.365Z,4.67
2019-06-20T10:17:07.636Z,4.70
2019-06-20T10:19:38.351Z,4.62
2019-06-20T10:22:08.677Z,4.60
2019-06-20T10:24:39.070Z,4.33
2019-06-20T10:27:30.231Z,4.25
2019-06-20T10:30:13.513Z,3.80
2019-06-20T10:32:32.521Z,3.62
2019-06-20T10:35:04.223Z,3.45
2019-06-20T10:37:34.594Z,3.60
2019-06-20T10:40:07.799Z,4.03
2019-06-20T10:42:39.234Z,3.58
2019-06-20T10:45:10.491Z,3.80
2019-06-20T10:47:43.574Z,3.72
2019-06-20T10:50:13.339Z,3.98
2019-06-20T10:52:43.731Z,3.33
2019-06-20T10:55:14.593Z,3.35
2019-06-20T10:57:44.917Z,3.98
2019-06-20T11:00:30.871Z,4.65
2019-06-20T11:02:49.045Z,4.50
2019-06-20T11:05:20.682Z,3.95
2019-06-20T11:07:51.232Z,4.30
2019-06-20T11:10:23.685Z,5.62
2019-06-20T11:12:56.453Z,5.05
2019-06-20T11:15:32.345Z,5.90
2019-06-20T11:18:02.756Z,6.55
2019-06-20T11:20:33.167Z,7.00
2019-06-20T11:23:05.026Z,5.97
2019-06-20T11:25:48.287Z,6.60
2019-06-20T11:28:21.233Z,4.72
2019-06-20T11:31:03.342Z,7.03
2019-06-20T11:33:36.663Z,6.53
2019-06-20T11:36:07.582Z,6.22
2019-06-20T11:38:39.029Z,5.70
2019-06-20T11:41:15.057Z,6.65
2019-06-20T11:43:42.223Z,5.15
2019-06-20T11:46:12.816Z,5.83
2019-06-20T11:48:43.122Z,5.85
2019-06-20T11:51:13.420Z,5.70
2019-06-20T11:53:43.669Z,5.53
2019-06-20T11:56:15.920Z,6.60
2019-06-20T11:58:45.943Z,6.58
2019-06-20T12:01:17.283Z,7.10
2019-06-20T12:03:48.918Z,8.23
2019-06-20T12:06:19.510Z,7.92
2019-06-20T12:08:49.853Z,8.60
2019-06-20T12:11:21.954Z,8.90
2019-06-20T12:13:52.257Z,6.60
2019-06-20T12:16:22.705Z,6.42
2019-06-20T12:18:53.131Z,7.90
2019-06-20T12:25:26.202Z,5.83
2019-06-20T12:27:56.132Z,7.22
2019-06-20T12:30:28.213Z,5.90
2019-06-20T12:33:02.131Z,5.95
2019-06-20T12:35:39.529Z,6.05
2019-06-20T12:38:18.122Z,6.62
2019-06-20T12:40:50.553Z,7.15
2019-06-20T12:43:20.900Z,5.95
2019-06-20T12:45:52.566Z,6.20
2019-06-20T12:48:24.367Z,8.05
2019-06-20T12:53:25.100Z,7.75
2019-06-20T12:55:55.309Z,7.45
2019-06-20T12:58:25.610Z,7.03
2019-06-20T13:00:56.383Z,6.12
2019-06-20T13:03:26.733Z,6.22
2019-06-20T13:05:58.043Z,6.90
2019-06-20T13:08:28.344Z,5.85
2019-06-20T13:11:00.096Z,6.42
2019-06-20T13:13:33.093Z,7.70
2019-06-20T13:16:03.446Z,9.15
2019-06-20T13:18:34.822Z,11.80
2019-06-20T13:21:05.192Z,12.43
2019-06-20T13:23:39.759Z,12.98
2019-06-20T13:26:09.741Z,12.10
2019-06-20T13:28:58.944Z,11.18
2019-06-20T13:31:14.901Z,12.25
2019-06-20T13:33:45.195Z,12.88
2019-06-20T13:36:15.942Z,13.28
2019-06-20T13:38:46.716Z,12.60
2019-06-20T13:41:17.058Z,7.90
2019-06-20T13:43:47.460Z,6.90
2019-06-20T13:46:17.828Z,7.42
2019-06-20T13:48:48.147Z,7.22
2019-06-20T13:51:21.157Z,7.95
2019-06-20T13:53:51.608Z,8.00
2019-06-20T13:56:24.970Z,6.97
2019-06-20T13:58:55.342Z,5.65
2019-06-20T14:01:25.665Z,5.70
2019-06-20T14:03:59.041Z,6.42
2019-06-20T14:06:29.264Z,6.12
2019-06-20T14:09:00.109Z,6.80
2019-06-20T14:11:30.470Z,62.10
2019-06-20T14:14:00.806Z,25.08
2019-06-20T14:16:32.296Z,6.62
2019-06-20T14:19:02.559Z,4.80
2019-06-20T14:21:34.888Z,6.17
2019-06-20T14:24:27.124Z,5.00
2019-06-20T14:26:58.481Z,4.50
2019-06-20T14:29:30.093Z,4.42
2019-06-20T14:32:00.474Z,3.47
2019-06-20T14:34:32.263Z,5.28
2019-06-20T14:37:02.917Z,3.50
2019-06-20T14:39:34.201Z,3.70
2019-06-20T14:42:06.066Z,5.42
2019-06-20T14:44:36.449Z,6.35
2019-06-20T14:47:11.134Z,5.78
2019-06-20T14:49:41.628Z,4.00
2019-06-20T14:52:13.362Z,3.62
2019-06-20T14:54:44.527Z,4.12
2019-06-20T14:57:18.303Z,4.30
2019-06-20T14:59:49.866Z,4.28
2019-06-20T15:02:37.235Z,4.53
2019-06-20T15:04:56.855Z,4.45
2019-06-20T15:07:27.307Z,3.65
2019-06-20T15:09:57.672Z,3.33
2019-06-20T15:12:27.984Z,4.17
2019-06-20T15:14:59.318Z,3.75
2019-06-20T15:17:29.637Z,2.80
2019-06-20T15:19:59.930Z,3.17
2019-06-20T15:22:30.169Z,3.27
2019-06-20T15:25:00.404Z,3.90
2019-06-20T15:27:35.000Z,4.05
2019-06-20T15:30:07.681Z,4.78
2019-06-20T15:32:53.311Z,4.95
2019-06-20T15:35:13.116Z,4.72
2019-06-20T15:37:43.792Z,3.80
2019-06-20T15:40:14.316Z,4.03
2019-06-20T15:42:44.957Z,3.87
2019-06-20T15:45:15.548Z,2.95
2019-06-20T15:47:45.859Z,2.90
2019-06-20T15:50:20.421Z,2.98
2019-06-20T15:52:50.728Z,4.47
2019-06-20T15:55:20.995Z,2.58
2019-06-20T15:57:54.229Z,2.90
2019-06-20T16:00:26.508Z,3.02
2019-06-20T16:03:08.900Z,2.40
2019-06-20T16:05:28.733Z,2.90
2019-06-20T16:07:59.113Z,2.95
2019-06-20T16:10:29.525Z,2.50
2019-06-20T16:13:03.142Z,2.80
2019-06-20T16:15:33.839Z,3.00
2019-06-20T16:18:04.635Z,2.55
2019-06-20T16:20:35.048Z,2.80
2019-06-20T16:23:06.512Z,2.62
2019-06-20T16:25:37.031Z,2.98
2019-06-20T16:28:07.329Z,2.87
2019-06-20T16:30:37.610Z,2.65
2019-06-20T16:33:24.750Z,2.87
2019-06-20T16:35:51.685Z,2.10
2019-06-20T16:38:22.098Z,2.40
2019-06-20T16:40:52.500Z,2.33
2019-06-20T16:43:22.778Z,1.70
2019-06-20T16:45:54.230Z,2.40
2019-06-20T16:48:24.699Z,2.40
2019-06-20T16:50:55.071Z,2.10
2019-06-20T16:53:25.386Z,2.65
2019-06-20T16:55:58.695Z,2.83
2019-06-20T16:58:29.030Z,2.20
2019-06-20T17:01:00.685Z,2.10
2019-06-20T17:06:06.358Z,2.15
2019-06-20T17:08:36.654Z,2.00
2019-06-20T17:11:06.934Z,1.90
2019-06-20T17:13:40.235Z,1.77
2019-06-20T17:16:10.760Z,1.95
2019-06-20T17:18:41.122Z,2.10
2019-06-20T17:21:12.662Z,1.90
2019-06-20T17:23:46.219Z,2.30
2019-06-20T17:26:16.529Z,33.90
2019-06-20T17:28:47.085Z,15.30
2019-06-20T17:31:17.453Z,4.67
2019-06-20T17:33:57.146Z,1.85
2019-06-20T17:36:19.924Z,2.30
2019-06-20T17:38:56.194Z,2.27
2019-06-20T17:41:26.555Z,2.30
2019-06-20T17:43:57.079Z,2.20
2019-06-20T17:46:27.350Z,2.30
2019-06-20T17:48:57.792Z,5.25
2019-06-20T17:51:28.059Z,3.87
2019-06-20T17:53:58.272Z,2.30
2019-06-20T17:56:28.730Z,3.22
2019-06-20T17:58:58.970Z,2.33
2019-06-20T18:01:29.264Z,4.65
2019-06-20T18:04:12.889Z,2.33
2019-06-20T18:06:31.494Z,5.03
2019-06-20T18:09:01.854Z,2.08
2019-06-20T18:11:33.718Z,2.00
2019-06-20T18:14:05.612Z,2.20
2019-06-20T18:16:37.610Z,1.80
2019-06-20T18:19:07.909Z,1.77
2019-06-20T18:21:38.223Z,4.22
2019-06-20T18:24:08.620Z,3.10
2019-06-20T18:26:38.922Z,2.12
2019-06-20T18:29:09.170Z,1.80
2019-06-20T18:31:42.293Z,1.85
2019-06-20T18:34:11.384Z,1.70
2019-06-20T18:36:43.553Z,1.67
2019-06-20T18:39:15.065Z,2.00
2019-06-20T18:41:47.432Z,2.40
2019-06-20T18:44:17.267Z,2.40
2019-06-20T18:46:47.497Z,2.02
2019-06-20T18:49:17.847Z,1.75
2019-06-20T18:51:48.171Z,2.00
2019-06-20T18:54:18.539Z,6.25
2019-06-20T18:56:49.353Z,2.45
2019-06-20T18:59:20.045Z,2.75
2019-06-20T19:01:50.442Z,2.52
2019-06-20T19:04:47.724Z,3.15
2019-06-20T19:07:11.868Z,3.10
2019-06-20T19:09:42.188Z,2.10
2019-06-20T19:12:12.431Z,1.92
2019-06-20T19:15:02.060Z,4.12
2019-06-20T19:17:32.340Z,2.90
2019-06-20T19:20:07.051Z,2.20
2019-06-20T19:22:40.095Z,1.70
2019-06-20T19:27:46.683Z,2.00
2019-06-20T19:30:18.241Z,1.98
2019-06-20T19:32:51.372Z,1.95
2019-06-20T19:37:50.968Z,1.90
2019-06-20T19:40:24.310Z,2.00
2019-06-20T19:42:54.636Z,2.00
2019-06-20T19:45:25.307Z,2.05
2019-06-20T19:48:00.039Z,1.90
2019-06-20T19:50:30.386Z,2.47
2019-06-20T19:53:00.666Z,2.50
2019-06-20T19:55:32.476Z,2.17
2019-06-20T19:58:04.277Z,3.15
2019-06-20T20:00:35.021Z,2.55
2019-06-20T20:03:06.253Z,3.00
2019-06-20T20:05:36.565Z,2.75
2019-06-20T20:08:07.613Z,11.40
2019-06-20T20:10:44.105Z,93.65
2019-06-20T20:13:15.405Z,4.78
2019-06-20T20:15:46.560Z,2.40
2019-06-20T20:18:18.670Z,2.72
2019-06-20T20:20:49.060Z,3.00
2019-06-20T20:23:25.385Z,2.87
2019-06-20T20:25:56.038Z,2.60
2019-06-20T20:28:26.532Z,3.00
2019-06-20T20:30:56.753Z,3.02
2019-06-20T20:33:28.145Z,2.45
2019-06-20T20:36:02.097Z,3.00
2019-06-20T20:38:34.955Z,2.85
2019-06-20T20:41:08.477Z,2.80
2019-06-20T20:43:43.027Z,2.50
2019-06-20T20:46:13.415Z,3.12
2019-06-20T20:48:43.879Z,2.65
2019-06-20T20:51:15.258Z,2.58
2019-06-20T20:53:45.839Z,2.75
2019-06-20T20:56:16.141Z,2.85
2019-06-20T20:58:52.682Z,14.73
2019-06-20T21:01:30.873Z,11.97
2019-06-20T21:04:02.558Z,33.05
2019-06-20T21:06:45.138Z,3.40
2019-06-20T21:09:15.279Z,8.53
2019-06-20T21:11:45.503Z,2.95
2019-06-20T21:14:15.730Z,2.90
2019-06-20T21:16:45.954Z,2.90
2019-06-20T21:19:16.184Z,2.90
2019-06-20T21:21:46.408Z,2.45
2019-06-20T21:24:24.307Z,2.90
2019-06-20T21:27:00.368Z,2.87
2019-06-20T21:29:50.061Z,2.60
2019-06-20T21:32:20.657Z,3.25
2019-06-20T21:34:50.938Z,2.60
2019-06-20T21:37:21.184Z,3.00
2019-06-20T21:39:51.591Z,2.87
2019-06-20T21:42:21.878Z,3.20
2019-06-20T21:44:52.128Z,3.27
2019-06-20T21:47:23.537Z,3.50
2019-06-20T21:49:55.379Z,2.72
2019-06-20T21:52:25.784Z,2.92
2019-06-20T21:54:56.088Z,3.67
2019-06-20T21:57:30.804Z,3.22
2019-06-20T22:00:01.611Z,3.72
2019-06-20T22:02:33.484Z,3.30
2019-06-20T22:05:06.092Z,12.63
2019-06-20T22:07:37.907Z,3.70
2019-06-20T22:10:08.330Z,3.22
2019-06-20T22:12:38.786Z,3.30
2019-06-20T22:15:09.683Z,3.52
2019-06-20T22:17:41.014Z,3.40
2019-06-20T22:20:11.722Z,3.58
2019-06-20T22:22:42.388Z,6.65
2019-06-20T22:25:14.307Z,3.33
2019-06-20T22:27:46.930Z,3.33
2019-06-20T22:30:20.211Z,3.50
2019-06-20T22:35:20.782Z,4.28
2019-06-20T22:37:51.133Z,2.98
2019-06-20T22:40:21.428Z,3.08
2019-06-20T22:42:51.804Z,3.75
2019-06-20T22:45:22.119Z,3.10
2019-06-20T22:47:52.857Z,3.90
2019-06-20T22:50:23.218Z,3.77
2019-06-20T22:52:55.979Z,3.42
2019-06-20T22:55:26.368Z,3.50
2019-06-20T22:57:57.240Z,4.03
2019-06-20T23:00:27.572Z,3.65
2019-06-20T23:03:06.752Z,4.08
2019-06-20T23:05:37.052Z,4.20
2019-06-20T23:08:07.496Z,4.08
2019-06-20T23:10:37.784Z,3.80
2019-06-20T23:13:09.805Z,4.47
2019-06-20T23:15:40.296Z,5.58
2019-06-20T23:18:10.616Z,4.20
2019-06-20T23:21:03.664Z,4.90
2019-06-20T23:23:23.258Z,4.87
2019-06-20T23:25:58.339Z,5.20
2019-06-20T23:28:31.311Z,5.28
2019-06-20T23:31:04.688Z,4.65
2019-06-20T23:33:43.901Z,5.22
2019-06-20T23:36:14.262Z,4.80
2019-06-20T23:38:52.046Z,5.05
2019-06-20T23:44:20.307Z,5.45
2019-06-20T23:49:40.368Z,5.85
2019-06-20T23:52:12.371Z,6.28
2019-06-20T23:54:43.052Z,5.90
2019-06-20T23:57:13.488Z,6.20
2019-06-20T23:59:43.869Z,6.50
